createdAt,value
2019-06-10T05:25:25.370Z,98.50
2019-06-10T05:27:53.715Z,98.20
2019-06-10T05:30:22.797Z,98.60
2019-06-10T05:32:52.396Z,99.70
2019-06-10T05:35:21.054Z,99.90
2019-06-10T05:37:50.092Z,99.90
2019-06-10T05:40:18.317Z,99.90
2019-06-10T05:42:46.301Z,99.90
2019-06-10T05:45:14.302Z,99.90
2019-06-10T05:47:42.831Z,99.90
2019-06-10T05:50:12.902Z,99.90
2019-06-10T05:52:42.674Z,99.90
2019-06-10T05:55:12.124Z,99.90
2019-06-10T05:57:42.632Z,99.80
2019-06-10T06:00:13.926Z,99.50
2019-06-10T06:02:39.951Z,99.20
2019-06-10T06:05:08.238Z,98.40
2019-06-10T06:07:37.507Z,98.70
2019-06-10T06:10:05.771Z,98.80
2019-06-10T06:12:35.665Z,99.10
2019-06-10T06:15:09.650Z,99.50
2019-06-10T06:17:38.618Z,99.30
2019-06-10T06:20:07.322Z,99.10
2019-06-10T06:22:35.662Z,99.20
2019-06-10T06:25:07.903Z,98.60
2019-06-10T06:27:37.069Z,98.60
2019-06-10T06:30:11.116Z,98.70
2019-06-10T06:32:37.864Z,98.50
2019-06-10T06:35:06.340Z,98.80
2019-06-10T06:37:36.432Z,98.50
2019-06-10T06:40:05.565Z,98.50
2019-06-10T06:42:35.117Z,97.80
2019-06-10T06:45:03.674Z,97.80
2019-06-10T06:47:34.068Z,97.70
2019-06-10T06:50:02.767Z,98.20
2019-06-10T06:52:55.614Z,98.30
2019-06-10T06:55:02.530Z,98.80
2019-06-10T06:57:31.634Z,99.40
2019-06-10T06:59:59.969Z,99.90
2019-06-10T07:02:27.941Z,99.90
2019-06-10T07:04:56.435Z,99.80
2019-06-10T07:07:25.279Z,99.40
2019-06-10T07:09:54.724Z,99.60
2019-06-10T07:12:23.966Z,99.10
2019-06-10T07:14:52.693Z,98.60
2019-06-10T07:17:22.752Z,98.10
2019-06-10T07:19:52.727Z,98.40
2019-06-10T07:22:20.135Z,98.00
2019-06-10T07:24:48.128Z,97.50
2019-06-10T07:27:16.110Z,97.80
2019-06-10T07:29:46.907Z,97.30
2019-06-10T07:32:13.805Z,97.20
2019-06-10T07:34:45.002Z,97.50
2019-06-10T07:37:12.999Z,97.10
2019-06-10T07:39:44.009Z,97.50
2019-06-10T07:42:13.473Z,97.50
2019-06-10T07:44:43.162Z,97.90
2019-06-10T07:47:12.465Z,97.80
2019-06-10T07:49:41.239Z,98.30
2019-06-10T07:52:15.533Z,99.00
2019-06-10T07:54:39.374Z,98.90
2019-06-10T07:57:07.621Z,99.30
2019-06-10T07:59:35.736Z,99.30
2019-06-10T08:02:03.978Z,99.50
2019-06-10T08:04:33.614Z,99.40
2019-06-10T08:07:03.351Z,99.70
2019-06-10T08:09:35.802Z,99.70
2019-06-10T08:12:05.453Z,99.40
2019-06-10T08:14:32.962Z,99.50
2019-06-10T08:17:02.967Z,99.80
2019-06-10T08:19:35.770Z,99.70
2019-06-10T08:22:02.686Z,99.50
2019-06-10T08:24:29.669Z,99.60
2019-06-10T08:26:57.692Z,99.00
2019-06-10T08:29:25.755Z,99.30
2019-06-10T08:31:53.893Z,98.60
2019-06-10T08:34:22.204Z,99.00
2019-06-10T08:36:53.568Z,98.00
2019-06-10T08:39:22.456Z,98.40
2019-06-10T08:41:49.798Z,98.70
2019-06-10T08:44:17.889Z,98.30
2019-06-10T08:46:47.278Z,97.40
2019-06-10T08:49:15.609Z,96.50
2019-06-10T08:51:48.837Z,97.40
2019-06-10T08:54:15.967Z,96.70
2019-06-10T08:56:47.635Z,96.50
2019-06-10T08:59:13.657Z,96.00
2019-06-10T09:01:46.043Z,96.20
2019-06-10T09:04:13.294Z,95.10
2019-06-10T09:06:46.299Z,95.50
2019-06-10T09:09:12.907Z,95.50
2019-06-10T09:11:46.861Z,95.30
2019-06-10T09:14:12.634Z,95.60
2019-06-10T09:16:43.835Z,95.70
2019-06-10T09:19:12.698Z,96.00
2019-06-10T09:21:44.860Z,95.20
2019-06-10T09:24:12.841Z,95.70
2019-06-10T09:26:44.571Z,95.20
2019-06-10T09:29:10.312Z,95.10
2019-06-10T09:31:39.481Z,95.10
2019-06-10T09:34:12.705Z,94.80
2019-06-10T09:36:40.918Z,95.10
2019-06-10T09:39:08.611Z,94.80
2019-06-10T09:41:41.472Z,94.40
2019-06-10T09:44:06.706Z,94.40
2019-06-10T09:46:34.776Z,94.10
2019-06-10T09:49:04.637Z,94.20
2019-06-10T09:51:33.078Z,94.00
2019-06-10T09:54:06.436Z,94.20
2019-06-10T09:56:33.154Z,93.60
2019-06-10T09:59:03.760Z,93.60
2019-06-10T10:01:32.672Z,93.60
2019-06-10T10:04:00.909Z,93.60
2019-06-10T10:06:28.899Z,93.30
2019-06-10T10:08:58.342Z,94.10
2019-06-10T10:11:28.578Z,93.80
2019-06-10T10:13:57.047Z,94.20
2019-06-10T10:16:25.119Z,94.00
2019-06-10T10:19:00.388Z,93.70
2019-06-10T10:21:22.807Z,93.60
2019-06-10T10:24:04.368Z,93.90
2019-06-10T10:26:20.496Z,93.60
2019-06-10T10:28:50.323Z,93.70
2019-06-10T10:31:18.152Z,93.70
2019-06-10T10:33:46.767Z,93.30
2019-06-10T10:36:14.806Z,93.50
2019-06-10T10:38:42.841Z,93.20
2019-06-10T10:41:13.431Z,93.70
2019-06-10T10:43:42.935Z,93.50
2019-06-10T10:46:13.484Z,93.00
2019-06-10T10:48:39.998Z,93.20
2019-06-10T10:51:07.975Z,93.50
2019-06-10T10:53:36.073Z,93.70
2019-06-10T10:56:04.156Z,93.70
2019-06-10T10:58:33.141Z,93.50
2019-06-10T11:01:04.054Z,93.60
2019-06-10T11:03:33.351Z,93.40
2019-06-10T11:06:01.245Z,93.70
2019-06-10T11:08:32.378Z,94.00
2019-06-10T11:11:03.575Z,94.10
2019-06-10T11:13:33.356Z,94.20
2019-06-10T11:16:03.520Z,94.50
2019-06-10T11:18:31.176Z,94.60
2019-06-10T11:21:02.468Z,94.50
2019-06-10T11:23:29.382Z,94.30
2019-06-10T11:25:58.903Z,94.20
2019-06-10T11:28:27.361Z,94.00
2019-06-10T11:30:56.819Z,94.20
2019-06-10T11:33:25.194Z,94.10
2019-06-10T11:35:56.527Z,93.90
2019-06-10T11:38:23.540Z,94.60
2019-06-10T11:40:55.963Z,93.70
2019-06-10T11:43:22.970Z,94.00
2019-06-10T11:45:55.121Z,93.90
2019-06-10T11:48:20.769Z,94.10
2019-06-10T11:50:49.209Z,94.80
2019-06-10T11:53:17.647Z,94.80
2019-06-10T11:55:45.770Z,95.10
2019-06-10T11:58:13.784Z,95.50
2019-06-10T12:00:42.657Z,95.50
2019-06-10T12:03:13.030Z,96.20
2019-06-10T12:05:40.607Z,96.50
2019-06-10T12:08:08.623Z,96.50
2019-06-10T12:10:36.657Z,97.10
2019-06-10T12:13:07.337Z,97.00
2019-06-10T12:16:12.662Z,97.20
2019-06-10T12:18:08.397Z,97.20
2019-06-10T12:20:33.848Z,97.20
2019-06-10T12:23:04.344Z,97.20
2019-06-10T12:25:38.856Z,97.50
2019-06-10T12:28:04.541Z,98.50
2019-06-10T12:30:34.244Z,98.80
2019-06-10T12:33:04.947Z,98.20
2019-06-10T12:35:33.194Z,97.90
2019-06-10T12:38:04.432Z,98.70
2019-06-10T12:40:30.054Z,98.90
2019-06-10T12:42:59.713Z,99.10
2019-06-10T12:45:28.004Z,98.70
2019-06-10T12:47:58.329Z,98.80
2019-06-10T12:50:25.973Z,98.70
2019-06-10T12:52:54.981Z,98.60
2019-06-10T12:55:37.898Z,98.50
2019-06-10T12:57:56.139Z,98.90
2019-06-10T13:00:26.554Z,99.00
2019-06-10T13:02:55.279Z,99.30
2019-06-10T13:05:23.383Z,99.80
2019-06-10T13:07:53.591Z,99.80
2019-06-10T13:10:23.161Z,99.90
2019-06-10T13:12:53.136Z,99.90
2019-06-10T13:15:22.127Z,99.90
2019-06-10T13:17:53.660Z,99.90
2019-06-10T13:20:22.807Z,99.70
2019-06-10T13:22:50.771Z,99.70
2019-06-10T13:25:18.820Z,99.90
2019-06-10T13:27:46.846Z,99.90
2019-06-10T13:30:15.010Z,99.90
2019-06-10T13:32:43.627Z,99.90
2019-06-10T13:35:12.580Z,99.90
2019-06-10T13:37:42.709Z,99.90
2019-06-10T13:40:12.936Z,99.90
2019-06-10T13:42:42.387Z,99.90
2019-06-10T13:45:10.857Z,99.90
2019-06-10T13:47:39.095Z,99.90
2019-06-10T13:50:09.487Z,99.90
2019-06-10T13:52:38.535Z,99.90
2019-06-10T13:55:09.038Z,99.90
2019-06-10T13:57:37.077Z,99.90
2019-06-10T14:00:08.028Z,99.90
2019-06-10T14:02:35.806Z,99.90
2019-06-10T14:05:09.733Z,99.90
2019-06-10T14:07:35.235Z,99.90
2019-06-10T14:10:09.686Z,99.90
2019-06-10T14:12:34.422Z,99.90
2019-06-10T14:15:04.556Z,99.90
2019-06-10T14:17:32.895Z,99.90
2019-06-10T14:20:01.767Z,99.90
2019-06-10T14:22:30.141Z,99.90
2019-06-10T14:24:58.588Z,99.90
2019-06-10T14:27:26.701Z,99.90
2019-06-10T14:29:55.018Z,99.90
2019-06-10T14:32:23.286Z,99.90
2019-06-10T14:34:52.702Z,99.80
2019-06-10T14:37:34.914Z,99.90
2019-06-10T14:39:52.927Z,99.90
2019-06-10T14:42:22.852Z,99.90
2019-06-10T14:44:52.536Z,98.80
2019-06-10T14:47:19.778Z,98.40
2019-06-10T14:49:49.464Z,98.20
2019-06-10T14:52:17.514Z,98.00
2019-06-10T14:54:46.180Z,98.30
2019-06-10T14:57:15.456Z,97.90
2019-06-10T14:59:43.982Z,96.90
2019-06-10T15:02:14.435Z,97.90
2019-06-10T15:04:42.663Z,97.50
2019-06-10T15:07:11.469Z,96.60
2019-06-10T15:09:39.621Z,96.00
2019-06-10T15:12:08.156Z,97.10
2019-06-10T15:14:36.208Z,97.50
2019-06-10T15:17:04.335Z,96.50
2019-06-10T15:19:33.227Z,97.10
2019-06-10T15:22:03.080Z,97.90
2019-06-10T15:24:33.478Z,96.50
2019-06-10T15:27:12.176Z,97.30
2019-06-10T15:29:32.787Z,96.60
2019-06-10T15:32:10.610Z,96.10
2019-06-10T15:34:32.463Z,97.20
2019-06-10T15:37:02.612Z,97.20
2019-06-10T15:39:33.232Z,97.10
2019-06-10T15:42:03.017Z,96.10
2019-06-10T15:44:48.690Z,96.40
2019-06-10T15:47:03.064Z,97.30
2019-06-10T15:49:32.766Z,97.70
2019-06-10T15:52:03.232Z,97.60
2019-06-10T15:54:33.322Z,96.70
2019-06-10T15:57:03.347Z,97.10
2019-06-10T15:59:32.674Z,97.00
2019-06-10T16:02:02.673Z,96.30
2019-06-10T16:04:35.082Z,95.20
2019-06-10T16:07:06.208Z,94.10
2019-06-10T16:09:34.626Z,94.50
2019-06-10T16:12:03.634Z,95.00
2019-06-10T16:14:33.266Z,95.30
2019-06-10T16:17:03.108Z,94.30
2019-06-10T16:19:32.889Z,95.20
2019-06-10T16:22:03.191Z,95.70
2019-06-10T16:24:33.102Z,96.50
2019-06-10T16:27:00.493Z,96.60
2019-06-10T16:29:28.545Z,97.00
2019-06-10T16:31:56.596Z,97.30
2019-06-10T16:34:28.578Z,97.20
2019-06-10T16:36:54.305Z,97.80
2019-06-10T16:39:24.182Z,97.40
2019-06-10T16:41:52.352Z,97.50
2019-06-10T16:44:23.262Z,97.50
2019-06-10T16:46:52.539Z,97.40
2019-06-10T16:49:21.344Z,97.40
2019-06-10T16:51:49.466Z,97.00
2019-06-10T16:54:17.552Z,96.80
2019-06-10T16:56:45.694Z,96.80
2019-06-10T16:59:14.636Z,96.90
2019-06-10T17:01:45.253Z,96.60
2019-06-10T17:04:17.251Z,96.90
2019-06-10T17:06:49.509Z,96.40
2019-06-10T17:09:26.492Z,96.90
2019-06-10T17:11:59.231Z,97.30
2019-06-10T17:14:33.319Z,97.00
2019-06-10T17:17:04.867Z,96.70
2019-06-10T17:19:34.933Z,96.90
2019-06-10T17:22:06.100Z,96.60
2019-06-10T17:24:38.249Z,97.20
2019-06-10T17:27:15.439Z,97.30
2019-06-10T17:29:46.598Z,97.00
2019-06-10T17:32:15.891Z,96.70
2019-06-10T17:34:49.719Z,97.10
2019-06-10T17:37:20.507Z,97.10
2019-06-10T17:39:53.074Z,96.70
2019-06-10T17:42:28.280Z,96.90
2019-06-10T17:44:54.094Z,96.80
2019-06-10T17:47:26.463Z,96.80
2019-06-10T17:49:55.768Z,97.40
2019-06-10T17:52:28.141Z,97.10
2019-06-10T17:54:58.958Z,97.40
2019-06-10T17:57:33.955Z,97.60
2019-06-10T18:00:10.953Z,97.10
2019-06-10T18:02:39.252Z,97.80
2019-06-10T18:05:12.642Z,98.20
2019-06-10T18:07:42.753Z,98.10
2019-06-10T18:10:13.240Z,98.00
2019-06-10T18:13:12.778Z,97.90
2019-06-10T18:15:35.385Z,98.40
2019-06-10T18:18:05.126Z,98.60
2019-06-10T18:20:37.098Z,98.20
2019-06-10T18:23:09.615Z,98.50
2019-06-10T18:25:44.245Z,98.60
2019-06-10T18:28:16.735Z,99.10
2019-06-10T18:30:47.951Z,99.00
2019-06-10T18:33:25.680Z,98.90
2019-06-10T18:35:57.845Z,98.70
2019-06-10T18:38:35.474Z,98.60
2019-06-10T18:41:06.252Z,98.90
2019-06-10T18:43:37.040Z,99.60
2019-06-10T18:46:08.031Z,99.50
2019-06-10T18:48:43.182Z,99.50
2019-06-10T18:51:23.873Z,99.10
2019-06-10T18:53:54.935Z,98.40
2019-06-10T18:56:32.654Z,98.10
2019-06-10T18:59:15.803Z,98.50
2019-06-10T19:01:34.371Z,98.50
2019-06-10T19:04:04.383Z,98.20
2019-06-10T19:06:36.547Z,97.60
2019-06-10T19:09:09.503Z,98.10
2019-06-10T19:11:40.259Z,98.80
2019-06-10T19:14:12.640Z,99.80
2019-06-10T19:16:42.993Z,99.90
2019-06-10T19:19:13.960Z,99.90
2019-06-10T19:21:44.326Z,99.80
2019-06-10T19:24:14.702Z,99.10
2019-06-10T19:26:45.397Z,99.10
2019-06-10T19:29:30.823Z,99.60
2019-06-10T19:31:53.607Z,99.90
2019-06-10T19:34:26.434Z,99.10
2019-06-10T19:36:57.690Z,99.20
2019-06-10T19:39:28.585Z,99.10
2019-06-10T19:42:02.822Z,98.90
2019-06-10T19:44:34.320Z,99.40
2019-06-10T19:47:05.066Z,99.20
2019-06-10T19:49:35.439Z,98.70
2019-06-10T19:52:06.776Z,98.80
2019-06-10T19:54:39.073Z,98.50
2019-06-10T19:57:08.245Z,98.60
2019-06-10T20:00:01.225Z,99.10
2019-06-10T20:02:08.878Z,98.40
2019-06-10T20:04:39.714Z,98.60
2019-06-10T20:07:12.649Z,98.50
2019-06-10T20:09:45.118Z,98.70
2019-06-10T20:12:13.403Z,98.80
2019-06-10T20:14:43.657Z,98.40
2019-06-10T20:17:14.607Z,98.20
2019-06-10T20:19:45.895Z,99.10
2019-06-10T20:22:15.353Z,99.80
2019-06-10T20:24:45.352Z,99.90
2019-06-10T20:27:13.295Z,99.30
2019-06-10T20:29:42.983Z,98.70
2019-06-10T20:32:11.047Z,98.60
2019-06-10T20:34:39.354Z,98.10
2019-06-10T20:37:07.462Z,96.70
2019-06-10T20:39:35.710Z,96.60
2019-06-10T20:42:03.867Z,96.60
2019-06-10T20:44:32.579Z,96.90
2019-06-10T20:47:00.719Z,97.80
2019-06-10T20:49:28.749Z,97.50
2019-06-10T20:52:08.051Z,97.30
2019-06-10T20:54:27.453Z,96.30
2019-06-10T20:56:56.130Z,96.70
2019-06-10T20:59:26.242Z,95.50
2019-06-10T21:01:57.695Z,95.10
2019-06-10T21:04:25.848Z,95.60
2019-06-10T21:06:53.923Z,96.40
2019-06-10T21:09:22.471Z,96.80
2019-06-10T21:11:51.920Z,97.10
2019-06-10T21:14:22.755Z,96.60
2019-06-10T21:16:51.069Z,97.00
2019-06-10T21:19:19.713Z,96.10
2019-06-10T21:21:49.517Z,96.40
2019-06-10T21:24:17.406Z,96.30
2019-06-10T21:26:47.069Z,96.30
2019-06-10T21:29:15.265Z,96.80
2019-06-10T21:31:45.391Z,97.40
2019-06-10T21:34:12.949Z,97.10
2019-06-10T21:36:41.242Z,97.20
2019-06-10T21:39:09.293Z,96.90
2019-06-10T21:41:37.269Z,97.20
2019-06-10T21:44:05.265Z,96.80
2019-06-10T21:46:33.276Z,96.90
2019-06-10T21:49:01.324Z,96.80
2019-06-10T21:51:31.728Z,96.90
2019-06-10T21:53:59.266Z,96.80
2019-06-10T21:56:27.279Z,97.50
2019-06-10T21:58:55.761Z,96.70
2019-06-10T22:01:23.825Z,96.60
2019-06-10T22:04:00.214Z,96.40
2019-06-10T22:06:22.804Z,96.60
2019-06-10T22:08:54.467Z,97.10
2019-06-10T22:11:23.120Z,98.20
2019-06-10T22:13:52.840Z,97.20
2019-06-10T22:16:22.472Z,98.10
2019-06-10T22:18:50.772Z,98.60
2019-06-10T22:21:18.857Z,99.20
2019-06-10T22:23:46.849Z,98.70
2019-06-10T22:26:14.824Z,98.30
2019-06-10T22:28:43.345Z,98.20
2019-06-10T22:31:19.707Z,97.80
2019-06-10T22:33:43.122Z,97.40
2019-06-10T22:36:12.939Z,97.50
2019-06-10T22:38:40.664Z,96.70
2019-06-10T22:41:08.645Z,97.40
2019-06-10T22:43:36.720Z,96.80
2019-06-10T22:46:04.724Z,96.70
2019-06-10T22:48:33.258Z,97.50
2019-06-10T22:51:01.419Z,97.60
2019-06-10T22:53:29.447Z,98.20
2019-06-10T22:55:59.072Z,98.10
2019-06-10T22:58:27.318Z,98.20
